Time,TemperatureF,DewpointF,PressureIn,WindDirection,WindDirectionDegrees,WindSpeedMPH,WindSpeedGustMPH,Humidity,HourlyPrecipIn,Conditions,Clouds,dailyrainin,SoftwareType,DateUTC
2013-02-14 01:30:00,40.0,-99.9,-100.00,West,264,7.0,10.0,-999,-99.99,,,-99.99,,2013-02-14 09:30:00,
2013-02-14 01:52:00,41.0,-99.9,-100.00,WNW,302,6.0,12.0,-999,-99.99,,,-99.99,,2013-02-14 09:52:00,
2013-02-14 02:02:00,41.0,-99.9,-100.00,WNW,302,6.0,12.0,-999,-99.99,,,-99.99,,2013-02-14 10:02:00,
2013-02-14 02:22:00,40.0,-99.9,-100.00,West,264,7.0,10.0,-999,-99.99,,,-99.99,,2013-02-14 10:22:00,
2013-02-14 03:02:00,40.0,-99.9,-100.00,West,273,8.0,13.0,-999,-99.99,,,-99.99,,2013-02-14 11:02:00,
2013-02-14 03:12:00,40.0,-99.9,-100.00,West,273,8.0,13.0,-999,-99.99,,,-99.99,,2013-02-14 11:12:00,
2013-02-14 04:32:00,40.0,-99.9,-100.00,West,264,7.0,9.0,-999,-99.99,,,-99.99,,2013-02-14 12:32:00,
2013-02-14 05:02:00,40.0,-99.9,-100.00,West,264,8.0,8.0,-999,-99.99,,,-99.99,,2013-02-14 13:02:00,
2013-02-14 05:11:00,40.0,-99.9,-100.00,West,264,8.0,8.0,-999,-99.99,,,-99.99,,2013-02-14 13:11:00,
2013-02-14 06:22:00,39.0,-99.9,-100.00,West,270,8.0,9.0,-999,-99.99,,,-99.99,,2013-02-14 14:22:00,
2013-02-14 06:32:00,40.0,-99.9,-100.00,West,270,7.0,10.0,-999,-99.99,,,-99.99,,2013-02-14 14:32:00,
2013-02-14 09:22:00,51.0,-99.9,-100.00,NNE,12,9.0,11.0,-999,-99.99,,,-99.99,,2013-02-14 17:22:00,
2013-02-14 09:32:00,52.0,-99.9,-100.00,NE,36,6.0,9.0,-999,-99.99,,,-99.99,,2013-02-14 17:32:00,
2013-02-14 09:42:00,52.0,-99.9,-100.00,NE,36,6.0,9.0,-999,-99.99,,,-99.99,,2013-02-14 17:42:00,
2013-02-14 09:52:00,52.0,-99.9,-100.00,NE,36,6.0,9.0,-999,-99.99,,,-99.99,,2013-02-14 17:52:00,
2013-02-14 12:32:00,60.0,-99.9,-100.00,NNE,27,13.0,17.0,-999,-99.99,,,-99.99,,2013-02-14 20:32:00,
2013-02-14 12:42:00,60.0,-99.9,-100.00,NNE,27,13.0,17.0,-999,-99.99,,,-99.99,,2013-02-14 20:42:00,
2013-02-14 12:52:00,60.0,-99.9,-100.00,NNE,27,13.0,17.0,-999,-99.99,,,-99.99,,2013-02-14 20:52:00,
2013-02-14 13:52:00,62.0,-99.9,-100.00,NNE,16,9.0,13.0,-999,-99.99,,,-99.99,,2013-02-14 21:52:00,
2013-02-14 14:02:00,62.0,-99.9,-100.00,NNE,16,9.0,13.0,-999,-99.99,,,-99.99,,2013-02-14 22:02:00,
2013-02-14 15:32:00,63.0,-99.9,-100.00,North,2,13.0,15.0,-999,-99.99,,,-99.99,,2013-02-14 23:32:00,
2013-02-14 15:42:00,63.0,-99.9,-100.00,North,2,13.0,15.0,-999,-99.99,,,-99.99,,2013-02-14 23:42:00,
2013-02-14 15:52:00,63.0,-99.9,-100.00,North,2,13.0,15.0,-999,-99.99,,,-99.99,,2013-02-14 23:52:00,
2013-02-14 17:10:00,62.0,-99.9,-100.00,NE,43,8.0,8.0,-999,-99.99,,,-99.99,,2013-02-15 01:10:00,
2013-02-14 17:22:00,65.0,-99.9,-100.00,NE,48,8.0,13.0,-999,-99.99,,,-99.99,,2013-02-15 01:22:00,
2013-02-14 17:32:00,65.0,-99.9,-100.00,NE,48,8.0,13.0,-999,-99.99,,,-99.99,,2013-02-15 01:32:00,
2013-02-14 17:52:00,62.0,-99.9,-100.00,NE,43,8.0,8.0,-999,-99.99,,,-99.99,,2013-02-15 01:52:00,
2013-02-14 18:01:00,62.0,-99.9,-100.00,NE,43,8.0,8.0,-999,-99.99,,,-99.99,,2013-02-15 02:01:00,
2013-02-14 18:10:00,55.0,-99.9,-100.00,NW,316,6.0,8.0,-999,-99.99,,,-99.99,,2013-02-15 02:10:00,
2013-02-14 18:32:00,57.0,-99.9,-100.00,NW,321,5.0,6.0,-999,-99.99,,,-99.99,,2013-02-15 02:32:00,
2013-02-14 18:42:00,57.0,-99.9,-100.00,NW,321,5.0,6.0,-999,-99.99,,,-99.99,,2013-02-15 02:42:00,
2013-02-14 18:52:00,55.0,-99.9,-100.00,NW,316,6.0,8.0,-999,-99.99,,,-99.99,,2013-02-15 02:52:00,
2013-02-14 19:02:00,55.0,-99.9,-100.00,NW,316,6.0,8.0,-999,-99.99,,,-99.99,,2013-02-15 03:02:00,
2013-02-14 19:32:00,54.0,-99.9,-100.00,WNW,298,7.0,7.0,-999,-99.99,,,-99.99,,2013-02-15 03:32:00,
2013-02-14 19:42:00,54.0,-99.9,-100.00,WNW,298,7.0,7.0,-999,-99.99,,,-99.99,,2013-02-15 03:42:00,
2013-02-14 20:20:00,48.0,-99.9,-100.00,West,259,6.0,8.0,-999,-99.99,,,-99.99,,2013-02-15 04:20:00,
2013-02-14 20:52:00,51.0,-99.9,-100.00,West,276,6.0,8.0,-999,-99.99,,,-99.99,,2013-02-15 04:52:00,
2013-02-14 21:02:00,48.0,-99.9,-100.00,West,259,6.0,8.0,-999,-99.99,,,-99.99,,2013-02-15 05:02:00,
2013-02-14 21:12:00,48.0,-99.9,-100.00,West,259,6.0,8.0,-999,-99.99,,,-99.99,,2013-02-15 05:12:00,
2013-02-14 21:20:00,47.0,-99.9,-100.00,WSW,257,6.0,8.0,-999,-99.99,,,-99.99,,2013-02-15 05:20:00,
2013-02-14 21:52:00,47.0,-99.9,-100.00,West,259,6.0,10.0,-999,-99.99,,,-99.99,,2013-02-15 05:52:00,
2013-02-14 22:02:00,47.0,-99.9,-100.00,WSW,257,6.0,8.0,-999,-99.99,,,-99.99,,2013-02-15 06:02:00,
2013-02-14 22:11:00,47.0,-99.9,-100.00,WSW,257,6.0,8.0,-999,-99.99,,,-99.99,,2013-02-15 06:11:00,
2013-02-14 23:30:00,44.0,-99.9,-100.00,West,261,6.0,8.0,-999,-99.99,,,-99.99,,2013-02-15 07:30:00,